createdAt,value
2019-06-20T00:00:51.343Z,14.85
2019-06-20T00:03:19.230Z,14.80
2019-06-20T00:05:47.749Z,14.89
2019-06-20T00:08:18.505Z,14.83
2019-06-20T00:10:47.182Z,14.84
2019-06-20T00:13:16.422Z,14.78
2019-06-20T00:15:44.383Z,14.75
2019-06-20T00:18:13.018Z,14.76
2019-06-20T00:20:40.943Z,14.78
2019-06-20T00:23:08.839Z,14.73
2019-06-20T00:25:41.485Z,14.70
2019-06-20T00:28:11.963Z,14.76
2019-06-20T00:30:40.536Z,14.76
2019-06-20T00:33:08.409Z,14.89
2019-06-20T00:35:37.103Z,14.94
2019-06-20T00:38:09.042Z,14.91
2019-06-20T00:40:37.237Z,14.85
2019-06-20T00:43:16.780Z,14.85
2019-06-20T00:45:36.742Z,14.88
2019-06-20T00:48:05.124Z,14.84
2019-06-20T00:50:33.360Z,14.85
2019-06-20T00:53:01.582Z,14.93
2019-06-20T00:55:30.198Z,14.85
2019-06-20T00:57:58.912Z,14.75
2019-06-20T01:00:26.838Z,14.66
2019-06-20T01:02:55.406Z,14.71
2019-06-20T01:05:25.471Z,14.66
2019-06-20T01:07:54.186Z,14.63
2019-06-20T01:10:25.009Z,14.62
2019-06-20T01:12:54.084Z,14.73
2019-06-20T01:15:22.698Z,14.74
2019-06-20T01:17:51.236Z,14.66
2019-06-20T01:20:19.510Z,14.60
2019-06-20T01:22:47.758Z,14.60
2019-06-20T01:25:18.091Z,14.55
2019-06-20T01:27:45.862Z,14.63
2019-06-20T01:30:14.447Z,14.64
2019-06-20T01:32:43.004Z,14.63
2019-06-20T01:35:11.618Z,14.58
2019-06-20T01:37:39.903Z,14.76
2019-06-20T01:40:11.288Z,14.67
2019-06-20T01:42:39.549Z,14.66
2019-06-20T01:45:08.234Z,14.69
2019-06-20T01:47:36.554Z,14.71
2019-06-20T01:50:04.396Z,14.66
2019-06-20T01:52:32.658Z,14.67
2019-06-20T01:55:01.259Z,14.76
2019-06-20T01:57:29.848Z,14.85
2019-06-20T01:59:57.785Z,14.86
2019-06-20T02:02:26.366Z,14.88
2019-06-20T02:04:54.697Z,14.93
2019-06-20T02:07:23.277Z,14.91
2019-06-20T02:09:51.447Z,14.94
2019-06-20T02:12:19.357Z,14.98
2019-06-20T02:14:48.418Z,14.99
2019-06-20T02:17:18.807Z,15.06
2019-06-20T02:19:46.628Z,15.11
2019-06-20T02:22:15.226Z,15.11
2019-06-20T02:24:43.411Z,15.06
2019-06-20T02:27:11.684Z,15.06
2019-06-20T02:29:41.744Z,15.12
2019-06-20T02:32:10.323Z,15.20
2019-06-20T02:34:41.051Z,15.28
2019-06-20T02:37:09.321Z,15.24
2019-06-20T02:39:37.270Z,15.18
2019-06-20T02:42:05.510Z,15.11
2019-06-20T02:44:33.754Z,15.09
2019-06-20T02:47:02.447Z,15.07
2019-06-20T02:49:30.736Z,15.02
2019-06-20T02:51:59.970Z,14.98
2019-06-20T02:54:28.167Z,14.93
2019-06-20T02:56:56.492Z,14.92
2019-06-20T02:59:24.973Z,14.90
2019-06-20T03:01:52.953Z,15.08
2019-06-20T03:04:21.245Z,15.03
2019-06-20T03:06:49.929Z,15.17
2019-06-20T03:09:18.215Z,15.04
2019-06-20T03:11:46.104Z,14.96
2019-06-20T03:14:14.277Z,15.01
2019-06-20T03:16:42.804Z,15.06
2019-06-20T03:19:12.144Z,14.95
2019-06-20T03:21:40.787Z,15.05
2019-06-20T03:24:09.473Z,14.99
2019-06-20T03:26:41.289Z,14.97
2019-06-20T03:29:09.902Z,14.99
2019-06-20T03:31:38.176Z,14.94
2019-06-20T03:34:06.983Z,14.95
2019-06-20T03:36:35.577Z,14.94
2019-06-20T03:39:05.570Z,14.92
2019-06-20T03:41:33.956Z,14.94
2019-06-20T03:44:02.152Z,15.02
2019-06-20T03:46:30.732Z,14.96
2019-06-20T03:48:59.127Z,14.98
2019-06-20T03:51:27.654Z,15.13
2019-06-20T03:53:55.503Z,15.14
2019-06-20T03:56:24.103Z,15.15
2019-06-20T03:58:52.378Z,15.11
2019-06-20T04:01:20.862Z,14.86
2019-06-20T04:03:48.814Z,14.77
2019-06-20T04:06:17.443Z,14.74
2019-06-20T04:08:45.663Z,14.78
2019-06-20T04:11:13.859Z,14.80
2019-06-20T04:13:44.290Z,14.80
2019-06-20T04:16:12.564Z,14.71
2019-06-20T04:18:40.859Z,14.73
2019-06-20T04:21:09.236Z,14.65
2019-06-20T04:23:37.432Z,14.60
2019-06-20T04:26:06.015Z,14.62
2019-06-20T04:28:34.201Z,14.60
2019-06-20T04:31:02.420Z,14.61
2019-06-20T04:33:30.894Z,14.65
2019-06-20T04:35:59.207Z,14.73
2019-06-20T04:38:27.354Z,14.73
2019-06-20T04:40:56.014Z,14.77
2019-06-20T04:43:25.728Z,14.74
2019-06-20T04:46:19.590Z,14.71
2019-06-20T04:48:47.701Z,14.68
2019-06-20T04:51:15.542Z,14.63
2019-06-20T04:53:43.413Z,14.57
2019-06-20T04:56:10.928Z,14.56
2019-06-20T04:58:40.767Z,14.53
2019-06-20T05:01:07.915Z,14.46
2019-06-20T05:03:35.520Z,14.41
2019-06-20T05:06:03.458Z,14.45
2019-06-20T05:08:32.083Z,14.48
2019-06-20T05:10:59.952Z,14.50
2019-06-20T05:13:27.515Z,14.50
2019-06-20T05:15:56.317Z,14.55
2019-06-20T05:18:24.557Z,14.56
2019-06-20T05:20:52.775Z,14.58
2019-06-20T05:23:20.402Z,14.59
2019-06-20T05:25:48.981Z,14.60
2019-06-20T05:28:16.798Z,14.61
2019-06-20T05:30:45.709Z,14.60
2019-06-20T05:33:14.561Z,14.62
2019-06-20T05:35:43.443Z,14.62
2019-06-20T05:38:11.974Z,14.76
2019-06-20T05:40:39.155Z,14.81
2019-06-20T05:43:07.413Z,14.93
2019-06-20T05:45:35.290Z,14.81
2019-06-20T05:48:03.153Z,14.84
2019-06-20T05:50:31.685Z,14.85
2019-06-20T05:52:59.523Z,14.85
2019-06-20T05:55:27.707Z,14.85
2019-06-20T05:57:55.971Z,14.88
2019-06-20T06:00:23.756Z,14.95
2019-06-20T06:02:51.988Z,15.07
2019-06-20T06:05:20.228Z,15.13
2019-06-20T06:07:48.436Z,15.23
2019-06-20T06:10:16.376Z,15.37
2019-06-20T06:12:45.220Z,15.51
2019-06-20T06:15:14.504Z,15.60
2019-06-20T06:17:42.347Z,15.72
2019-06-20T06:20:10.652Z,15.69
2019-06-20T06:22:38.878Z,15.77
2019-06-20T06:25:07.368Z,15.83
2019-06-20T06:27:35.871Z,15.88
2019-06-20T06:30:05.443Z,15.93
2019-06-20T06:32:40.193Z,16.10
2019-06-20T06:35:04.617Z,15.93
2019-06-20T06:37:33.288Z,15.83
2019-06-20T06:40:01.894Z,15.78
2019-06-20T06:42:30.290Z,15.71
2019-06-20T06:44:58.737Z,15.80
2019-06-20T06:47:27.052Z,15.95
2019-06-20T06:49:57.069Z,15.87
2019-06-20T06:52:25.619Z,15.89
2019-06-20T06:54:54.204Z,15.73
2019-06-20T06:57:22.556Z,15.69
2019-06-20T06:59:51.227Z,15.63
2019-06-20T07:02:19.779Z,15.76
2019-06-20T07:04:48.499Z,15.90
2019-06-20T07:07:16.908Z,16.08
2019-06-20T07:09:45.809Z,15.98
2019-06-20T07:12:13.682Z,15.98
2019-06-20T07:14:42.959Z,16.03
2019-06-20T07:17:10.950Z,16.07
2019-06-20T07:19:39.483Z,15.92
2019-06-20T07:22:07.978Z,16.12
2019-06-20T07:24:36.280Z,16.04
2019-06-20T07:27:04.273Z,16.06
2019-06-20T07:29:32.559Z,16.25
2019-06-20T07:32:00.125Z,16.29
2019-06-20T07:34:28.575Z,16.34
2019-06-20T07:36:57.398Z,16.27
2019-06-20T07:39:25.761Z,16.27
2019-06-20T07:41:54.400Z,16.34
2019-06-20T07:44:22.659Z,16.39
2019-06-20T07:46:51.254Z,16.32
2019-06-20T07:49:19.906Z,16.31
2019-06-20T07:51:48.520Z,16.41
2019-06-20T07:54:17.257Z,16.47
2019-06-20T07:56:45.497Z,16.63
2019-06-20T07:59:14.326Z,16.68
2019-06-20T08:01:42.885Z,16.85
2019-06-20T08:04:10.738Z,16.83
2019-06-20T08:06:39.355Z,17.02
2019-06-20T08:09:08.345Z,17.06
2019-06-20T08:11:36.618Z,17.12
2019-06-20T08:14:04.942Z,17.21
2019-06-20T08:16:33.337Z,17.37
2019-06-20T08:19:01.523Z,17.58
2019-06-20T08:21:30.139Z,17.70
2019-06-20T08:23:58.393Z,17.81
2019-06-20T08:26:27.043Z,17.79
2019-06-20T08:29:10.253Z,17.58
2019-06-20T08:31:25.080Z,17.44
2019-06-20T08:33:53.544Z,17.31
2019-06-20T08:36:22.170Z,17.33
2019-06-20T08:38:50.908Z,17.34
2019-06-20T08:41:18.870Z,17.41
2019-06-20T08:43:47.074Z,17.40
2019-06-20T08:46:14.579Z,17.53
2019-06-20T08:51:20.634Z,17.75
2019-06-20T08:53:48.715Z,17.87
2019-06-20T08:56:17.378Z,17.87
2019-06-20T08:58:45.963Z,17.96
2019-06-20T09:01:14.295Z,18.06
2019-06-20T09:03:43.084Z,18.16
2019-06-20T09:06:11.329Z,18.16
2019-06-20T09:08:39.968Z,18.28
2019-06-20T09:11:07.877Z,18.44
2019-06-20T09:13:36.542Z,18.70
2019-06-20T09:16:05.090Z,18.87
2019-06-20T09:18:32.964Z,19.02
2019-06-20T09:21:02.122Z,19.03
2019-06-20T09:23:30.877Z,19.09
2019-06-20T09:25:59.662Z,19.05
2019-06-20T09:28:27.938Z,18.95
2019-06-20T09:30:57.129Z,18.98
2019-06-20T09:33:25.758Z,18.90
2019-06-20T09:35:55.489Z,18.94
2019-06-20T09:38:24.403Z,18.88
2019-06-20T09:40:53.146Z,18.88
2019-06-20T09:43:27.720Z,18.95
2019-06-20T09:45:53.154Z,19.15
2019-06-20T09:48:22.018Z,19.36
2019-06-20T09:50:51.730Z,19.52
2019-06-20T09:53:21.307Z,19.51
2019-06-20T09:55:49.998Z,19.61
2019-06-20T09:58:18.788Z,19.70
2019-06-20T10:00:47.658Z,19.69
2019-06-20T10:03:16.759Z,19.58
2019-06-20T10:05:46.003Z,19.71
2019-06-20T10:08:15.147Z,19.77
2019-06-20T10:10:43.405Z,19.91
2019-06-20T10:13:12.035Z,19.93
2019-06-20T10:15:40.354Z,19.92
2019-06-20T10:18:08.696Z,19.91
2019-06-20T10:20:38.992Z,19.75
2019-06-20T10:23:07.238Z,19.80
2019-06-20T10:25:35.540Z,19.72
2019-06-20T10:28:04.196Z,19.77
2019-06-20T10:30:32.474Z,19.55
2019-06-20T10:33:01.150Z,19.44
2019-06-20T10:35:29.788Z,19.33
2019-06-20T10:37:57.748Z,19.28
2019-06-20T10:40:26.381Z,19.19
2019-06-20T10:42:55.110Z,19.06
2019-06-20T10:45:24.743Z,19.07
2019-06-20T10:47:53.094Z,19.04
2019-06-20T10:50:21.650Z,19.02
2019-06-20T10:52:50.161Z,18.99
2019-06-20T10:55:19.058Z,19.03
2019-06-20T10:57:48.005Z,19.14
2019-06-20T11:00:30.114Z,19.17
2019-06-20T11:02:49.119Z,19.16
2019-06-20T11:05:18.619Z,19.23
2019-06-20T11:07:47.647Z,19.30
2019-06-20T11:10:18.464Z,19.25
2019-06-20T11:12:52.356Z,19.27
2019-06-20T11:15:20.445Z,19.33
2019-06-20T11:17:48.712Z,19.34
2019-06-20T11:20:19.114Z,19.39
2019-06-20T11:22:47.953Z,19.47
2019-06-20T11:25:18.987Z,19.46
2019-06-20T11:27:47.275Z,19.62
2019-06-20T11:30:16.195Z,19.76
2019-06-20T11:32:44.105Z,19.89
2019-06-20T11:35:12.288Z,20.11
2019-06-20T11:37:40.515Z,20.38
2019-06-20T11:40:09.550Z,20.79
2019-06-20T11:42:37.811Z,21.39
2019-06-20T11:45:06.918Z,21.53
2019-06-20T11:47:36.542Z,21.51
2019-06-20T11:50:04.902Z,21.34
2019-06-20T11:52:40.042Z,21.28
2019-06-20T11:55:03.973Z,21.52
2019-06-20T11:57:32.565Z,21.67
2019-06-20T12:00:00.799Z,21.56
2019-06-20T12:02:29.298Z,21.37
2019-06-20T12:04:57.988Z,21.15
2019-06-20T12:07:26.155Z,21.17
2019-06-20T12:09:54.878Z,21.28
2019-06-20T12:12:23.377Z,21.35
2019-06-20T12:14:51.661Z,21.48
2019-06-20T12:17:20.215Z,21.33
2019-06-20T12:19:48.853Z,21.09
2019-06-20T12:22:17.037Z,21.20
2019-06-20T12:24:46.683Z,21.24
2019-06-20T12:27:14.970Z,21.09
2019-06-20T12:29:44.369Z,21.22
2019-06-20T12:32:13.086Z,21.61
2019-06-20T12:34:42.163Z,21.94
2019-06-20T12:37:10.154Z,22.68
2019-06-20T12:39:40.292Z,23.51
2019-06-20T12:42:08.763Z,24.30
2019-06-20T12:44:38.496Z,23.66
2019-06-20T12:47:07.282Z,22.73
2019-06-20T12:49:35.558Z,22.00
2019-06-20T12:52:04.263Z,21.48
2019-06-20T12:54:32.841Z,21.04
2019-06-20T12:57:01.170Z,20.75
2019-06-20T12:59:29.383Z,20.42
2019-06-20T13:01:57.648Z,20.16
2019-06-20T13:04:26.280Z,19.97
2019-06-20T13:06:54.553Z,19.28
2019-06-20T13:09:22.537Z,18.41
2019-06-20T13:11:50.907Z,17.61
2019-06-20T13:14:19.358Z,17.11
2019-06-20T13:16:48.270Z,16.84
2019-06-20T13:19:16.416Z,16.66
2019-06-20T13:21:44.816Z,16.56
2019-06-20T13:24:12.414Z,16.56
2019-06-20T13:26:41.095Z,16.63
2019-06-20T13:29:10.442Z,16.72
2019-06-20T13:31:56.585Z,16.85
2019-06-20T13:34:08.227Z,16.92
2019-06-20T13:36:38.156Z,17.04
2019-06-20T13:39:07.346Z,17.13
2019-06-20T13:41:35.279Z,17.30
2019-06-20T13:44:03.933Z,17.42
2019-06-20T13:46:31.986Z,17.58
2019-06-20T13:49:00.154Z,17.54
2019-06-20T13:51:28.761Z,17.57
2019-06-20T13:53:57.609Z,17.59
2019-06-20T13:56:26.218Z,17.63
2019-06-20T13:58:54.400Z,17.62
2019-06-20T14:01:22.624Z,17.64
2019-06-20T14:03:50.930Z,17.59
2019-06-20T14:06:18.989Z,17.45
2019-06-20T14:08:47.525Z,17.40
2019-06-20T14:11:16.324Z,17.60
2019-06-20T14:13:49.261Z,17.67
2019-06-20T14:16:15.150Z,17.67
2019-06-20T14:18:44.548Z,17.88
2019-06-20T14:21:13.977Z,17.93
2019-06-20T14:23:42.879Z,18.05
2019-06-20T14:26:12.279Z,18.20
2019-06-20T14:28:42.534Z,18.23
2019-06-20T14:31:10.147Z,18.12
2019-06-20T14:33:38.695Z,18.28
2019-06-20T14:36:06.942Z,18.60
2019-06-20T14:38:35.596Z,19.52
2019-06-20T14:41:04.064Z,20.18
2019-06-20T14:43:32.761Z,20.51
2019-06-20T14:46:01.437Z,21.72
2019-06-20T14:48:30.035Z,23.82
2019-06-20T14:50:58.252Z,25.08
2019-06-20T14:53:26.765Z,25.49
2019-06-20T14:55:55.327Z,26.26
2019-06-20T14:58:23.556Z,26.59
2019-06-20T15:00:52.250Z,26.74
2019-06-20T15:03:20.394Z,27.18
2019-06-20T15:05:50.170Z,27.32
2019-06-20T15:08:18.759Z,27.31
2019-06-20T15:10:48.404Z,27.66
2019-06-20T15:13:17.204Z,28.70
2019-06-20T15:15:46.608Z,28.95
2019-06-20T15:18:16.240Z,27.98
2019-06-20T15:20:45.184Z,25.79
2019-06-20T15:23:14.467Z,24.52
2019-06-20T15:25:42.440Z,23.95
2019-06-20T15:28:10.669Z,23.64
2019-06-20T15:30:39.368Z,23.16
2019-06-20T15:33:10.468Z,22.66
2019-06-20T15:35:37.362Z,22.15
2019-06-20T15:38:05.701Z,21.80
2019-06-20T15:40:34.232Z,21.40
2019-06-20T15:43:02.514Z,21.33
2019-06-20T15:45:31.083Z,21.80
2019-06-20T15:47:59.280Z,22.15
2019-06-20T15:50:27.982Z,22.65
2019-06-20T15:52:56.585Z,23.22
2019-06-20T15:55:24.980Z,23.49
2019-06-20T15:57:54.314Z,23.85
2019-06-20T16:00:23.353Z,23.99
2019-06-20T16:02:51.780Z,24.08
2019-06-20T16:05:20.050Z,23.78
2019-06-20T16:07:48.308Z,23.25
2019-06-20T16:10:16.891Z,22.77
2019-06-20T16:12:44.767Z,22.25
2019-06-20T16:15:19.393Z,22.45
2019-06-20T16:17:48.064Z,22.79
2019-06-20T16:20:16.305Z,22.70
2019-06-20T16:22:44.934Z,22.34
2019-06-20T16:25:13.248Z,21.75
2019-06-20T16:27:41.508Z,22.02
2019-06-20T16:30:10.311Z,22.40
2019-06-20T16:32:39.049Z,22.77
2019-06-20T16:35:07.597Z,23.15
2019-06-20T16:37:35.939Z,23.35
2019-06-20T16:40:04.499Z,23.61
2019-06-20T16:42:33.128Z,23.40
2019-06-20T16:45:01.298Z,22.81
2019-06-20T16:47:29.288Z,22.28
2019-06-20T16:49:57.295Z,21.92
2019-06-20T16:52:25.474Z,21.65
2019-06-20T16:54:53.343Z,21.27
2019-06-20T16:57:21.530Z,20.97
2019-06-20T16:59:50.101Z,20.80
2019-06-20T17:02:18.392Z,20.63
2019-06-20T17:04:46.642Z,20.58
2019-06-20T17:07:15.267Z,20.50
2019-06-20T17:09:43.512Z,20.45
2019-06-20T17:12:11.874Z,20.35
2019-06-20T17:14:39.787Z,20.38
2019-06-20T17:17:08.491Z,20.36
2019-06-20T17:19:46.714Z,20.41
2019-06-20T17:22:15.315Z,20.31
2019-06-20T17:24:43.665Z,20.33
2019-06-20T17:27:11.914Z,20.29
2019-06-20T17:29:39.832Z,20.28
2019-06-20T17:32:07.868Z,20.17
2019-06-20T17:34:36.091Z,20.21
2019-06-20T17:37:03.929Z,20.39
2019-06-20T17:39:32.652Z,20.59
2019-06-20T17:42:01.136Z,20.58
2019-06-20T17:44:29.458Z,20.42
2019-06-20T17:46:57.564Z,20.22
2019-06-20T17:49:25.865Z,20.13
2019-06-20T17:51:54.262Z,19.95
2019-06-20T17:54:22.911Z,19.85
2019-06-20T17:56:51.296Z,19.78
2019-06-20T17:59:22.650Z,19.72
2019-06-20T18:01:50.099Z,19.61
2019-06-20T18:04:18.743Z,19.61
2019-06-20T18:06:47.537Z,19.59
2019-06-20T18:09:15.518Z,19.49
2019-06-20T18:11:44.235Z,19.36
2019-06-20T18:14:13.148Z,19.14
2019-06-20T18:16:42.253Z,18.53
2019-06-20T18:19:10.585Z,18.53
2019-06-20T18:21:39.398Z,18.43
2019-06-20T18:24:08.280Z,18.28
2019-06-20T18:26:38.039Z,18.26
2019-06-20T18:29:07.778Z,18.26
2019-06-20T18:31:36.129Z,18.16
2019-06-20T18:34:04.789Z,18.13
2019-06-20T18:36:34.870Z,17.69
2019-06-20T18:39:04.375Z,17.69
2019-06-20T18:41:33.067Z,17.51
2019-06-20T18:44:01.052Z,17.44
2019-06-20T18:46:30.160Z,17.42
2019-06-20T18:48:58.368Z,17.33
2019-06-20T18:51:27.129Z,17.15
2019-06-20T18:53:56.430Z,17.15
2019-06-20T18:56:25.327Z,17.02
2019-06-20T18:58:55.419Z,16.81
2019-06-20T19:01:24.181Z,16.70
2019-06-20T19:03:53.850Z,16.59
2019-06-20T19:06:35.362Z,16.50
2019-06-20T19:08:54.538Z,16.45
2019-06-20T19:11:24.229Z,16.48
2019-06-20T19:13:52.890Z,16.55
2019-06-20T19:16:22.186Z,16.50
2019-06-20T19:18:50.604Z,16.45
2019-06-20T19:21:19.443Z,16.40
2019-06-20T19:23:48.441Z,16.33
2019-06-20T19:26:17.427Z,16.28
2019-06-20T19:28:45.716Z,16.26
2019-06-20T19:31:13.741Z,16.22
2019-06-20T19:33:42.179Z,16.20
2019-06-20T19:36:10.399Z,16.11
2019-06-20T19:38:39.162Z,16.04
2019-06-20T19:41:07.002Z,15.95
2019-06-20T19:43:35.775Z,15.88
2019-06-20T19:46:03.988Z,15.79
2019-06-20T19:48:32.712Z,15.72
2019-06-20T19:51:01.015Z,15.62
2019-06-20T19:53:29.695Z,15.55
2019-06-20T19:55:57.782Z,15.41
2019-06-20T19:58:26.091Z,15.27
2019-06-20T20:00:54.710Z,15.19
2019-06-20T20:03:23.074Z,15.11
2019-06-20T20:05:51.903Z,15.08
2019-06-20T20:08:20.499Z,15.07
2019-06-20T20:10:48.666Z,15.06
2019-06-20T20:13:17.146Z,15.03
2019-06-20T20:15:45.366Z,15.02
2019-06-20T20:18:13.834Z,15.01
2019-06-20T20:20:41.855Z,14.96
2019-06-20T20:23:09.497Z,14.96
2019-06-20T20:25:37.862Z,14.92
2019-06-20T20:28:06.546Z,14.88
2019-06-20T20:30:35.069Z,14.88
2019-06-20T20:33:02.995Z,14.85
2019-06-20T20:35:36.076Z,14.85
2019-06-20T20:38:03.753Z,14.82
2019-06-20T20:40:31.744Z,14.80
2019-06-20T20:43:00.557Z,14.76
2019-06-20T20:45:29.336Z,14.66
2019-06-20T20:47:57.283Z,14.60
2019-06-20T20:50:25.942Z,14.71
2019-06-20T20:52:53.963Z,14.69
2019-06-20T20:55:22.813Z,14.67
2019-06-20T20:57:51.668Z,14.67
2019-06-20T21:00:25.794Z,14.68
2019-06-20T21:02:53.932Z,14.65
2019-06-20T21:05:22.584Z,14.59
2019-06-20T21:07:51.405Z,14.57
2019-06-20T21:10:21.220Z,14.54
2019-06-20T21:12:50.707Z,14.57
2019-06-20T21:15:20.032Z,14.61
2019-06-20T21:17:49.419Z,14.59
2019-06-20T21:20:19.308Z,14.57
2019-06-20T21:22:48.143Z,14.51
2019-06-20T21:25:17.330Z,14.44
2019-06-20T21:27:46.548Z,14.44
2019-06-20T21:30:16.354Z,14.41
2019-06-20T21:32:45.407Z,14.41
2019-06-20T21:35:14.648Z,14.42
2019-06-20T21:37:44.833Z,14.40
2019-06-20T21:40:13.111Z,14.42
2019-06-20T21:42:42.225Z,14.38
2019-06-20T21:45:14.047Z,14.37
2019-06-20T21:47:44.068Z,14.41
2019-06-20T21:50:13.018Z,14.37
2019-06-20T21:52:44.161Z,14.31
2019-06-20T21:55:12.657Z,14.25
2019-06-20T21:57:40.911Z,14.18
2019-06-20T22:00:12.213Z,14.15
2019-06-20T22:02:40.299Z,14.14
2019-06-20T22:05:10.882Z,14.11
2019-06-20T22:07:40.151Z,14.07
2019-06-20T22:10:08.741Z,14.02
2019-06-20T22:12:37.721Z,14.03
2019-06-20T22:15:05.498Z,14.03
2019-06-20T22:17:34.986Z,14.07
2019-06-20T22:20:04.776Z,14.07
2019-06-20T22:22:34.111Z,14.11
2019-06-20T22:25:02.820Z,14.09
2019-06-20T22:27:32.565Z,14.12
2019-06-20T22:30:03.670Z,14.16
2019-06-20T22:32:31.085Z,14.44
2019-06-20T22:35:00.182Z,14.34
2019-06-20T22:37:29.480Z,14.33
2019-06-20T22:39:57.664Z,14.35
2019-06-20T22:42:25.622Z,14.34
2019-06-20T22:44:53.593Z,14.36
2019-06-20T22:47:22.072Z,14.38
2019-06-20T22:49:50.327Z,14.48
2019-06-20T22:52:18.971Z,14.43
2019-06-20T22:54:47.267Z,14.42
2019-06-20T22:57:15.130Z,14.49
2019-06-20T22:59:46.474Z,14.46
2019-06-20T23:02:14.099Z,14.49
2019-06-20T23:04:42.435Z,14.50
2019-06-20T23:07:10.709Z,14.40
2019-06-20T23:09:40.419Z,14.33
2019-06-20T23:12:08.887Z,14.35
2019-06-20T23:14:37.317Z,14.33
2019-06-20T23:17:05.762Z,14.34
2019-06-20T23:19:33.612Z,14.38
2019-06-20T23:22:02.290Z,14.40
2019-06-20T23:24:29.943Z,14.46
2019-06-20T23:26:58.615Z,14.49
2019-06-20T23:29:26.913Z,14.53
2019-06-20T23:31:55.412Z,14.54
2019-06-20T23:34:23.296Z,14.58
2019-06-20T23:36:51.893Z,14.56
2019-06-20T23:39:20.230Z,14.56
2019-06-20T23:41:48.139Z,14.50
2019-06-20T23:44:16.432Z,14.42
2019-06-20T23:46:45.224Z,14.37
2019-06-20T23:49:14.081Z,14.36
2019-06-20T23:51:50.001Z,14.41
2019-06-20T23:54:18.264Z,14.51
2019-06-20T23:56:46.674Z,14.45
2019-06-20T23:59:14.976Z,14.41
